Time;durP1;ratioP1;P1;durP2;ratioP2;P2;SDS_P1;SDS_P2;PMS_P1;PMS_P2;Temp;Humidity;BMP_temperature;BMP_pressure;BME280_temperature;BME280_humidity;BME280_pressure;Samples;Min_cycle;Max_cycle;Signal;HPM_P1;HPM_P2
2022/10/11 00:00:54;;;;;;;9.07;4.20;;;11.00;99.90;;;;;;5068958;28;20246;-33
2022/10/11 00:03:21;;;;;;;9.67;4.37;;;11.00;99.90;;;;;;5068424;28;20190;-33
2022/10/11 00:05:52;;;;;;;10.20;4.57;;;11.00;99.90;;;;;;5068488;28;20207;-33
2022/10/11 00:08:20;;;;;;;10.77;4.60;;;10.90;99.90;;;;;;5068577;28;20706;-33
2022/10/11 00:10:59;;;;;;;9.97;4.30;;;10.90;99.90;;;;;;5068556;28;20670;-33
2022/10/11 00:13:27;;;;;;;8.43;3.97;;;10.90;99.90;;;;;;5068920;28;20716;-33
2022/10/11 00:15:57;;;;;;;8.47;4.40;;;10.80;99.90;;;;;;5066900;28;20223;-33
2022/10/11 00:18:25;;;;;;;10.70;4.50;;;10.80;99.90;;;;;;5068388;28;20314;-33
2022/10/11 00:21:10;;;;;;;8.57;4.03;;;10.80;99.90;;;;;;5067102;28;20828;-31
2022/10/11 00:23:38;;;;;;;10.13;4.00;;;10.70;99.90;;;;;;5068467;28;20278;-31
2022/10/11 00:26:08;;;;;;;10.10;4.30;;;10.70;99.90;;;;;;5068208;28;20346;-32
2022/10/11 00:28:36;;;;;;;7.43;3.90;;;10.70;99.90;;;;;;5066950;28;20199;-32
2022/10/11 00:31:14;;;;;;;11.40;4.70;;;10.70;99.90;;;;;;5068178;28;20199;-33
2022/10/11 00:33:41;;;;;;;8.20;3.97;;;10.70;99.90;;;;;;5068792;28;20286;-32
2022/10/11 00:36:12;;;;;;;9.93;3.73;;;10.60;99.90;;;;;;5067782;28;20784;-33
2022/10/11 00:38:39;;;;;;;10.27;4.40;;;10.60;99.90;;;;;;5068141;28;20257;-32
2022/10/11 00:41:10;;;;;;;10.83;4.30;;;10.60;99.90;;;;;;5068271;28;20211;-32
2022/10/11 00:43:37;;;;;;;7.67;4.10;;;10.50;99.90;;;;;;5068153;28;20191;-34
2022/10/11 00:46:25;;;;;;;10.47;4.07;;;10.50;99.90;;;;;;5066716;28;20554;-35
2022/10/11 00:48:58;;;;;;;7.30;3.30;;;10.50;99.90;;;;;;5068063;28;20290;-35
2022/10/11 00:51:38;;;;;;;8.00;3.90;;;10.50;99.90;;;;;;5068046;28;20226;-35
2022/10/11 00:54:06;;;;;;;7.45;4.40;;;10.40;99.90;;;;;;5066816;28;20947;-34
2022/10/11 00:56:37;;;;;;;9.63;3.97;;;10.60;99.90;;;;;;5068635;28;20219;-32
2022/10/11 00:59:15;;;;;;;8.63;3.90;;;10.60;99.90;;;;;;5056110;28;20555;-32
2022/10/11 01:01:42;;;;;;;8.23;4.10;;;10.50;99.90;;;;;;5051254;28;20192;-32
2022/10/11 01:04:10;;;;;;;6.57;3.50;;;10.50;99.90;;;;;;5047506;28;20281;-32
2022/10/11 01:06:39;;;;;;;10.30;3.87;;;10.50;99.90;;;;;;5053358;28;20262;-32
2022/10/11 01:09:07;;;;;;;10.07;3.40;;;10.40;99.90;;;;;;5047673;28;20310;-32
2022/10/11 01:11:40;;;;;;;5.13;3.00;;;10.40;99.90;;;;;;5047626;28;20323;-32
2022/10/11 01:14:44;;;;;;;5.70;3.43;;;10.30;99.90;;;;;;5047650;28;20577;-32
2022/10/11 01:17:26;;;;;;;8.23;3.83;;;10.30;99.90;;;;;;5049788;28;20239;-32
2022/10/11 01:20:18;;;;;;;5.07;3.33;;;10.30;99.90;;;;;;5051705;28;20196;-32
2022/10/11 01:23:03;;;;;;;5.83;3.37;;;10.20;99.90;;;;;;5051794;28;20230;-32
2022/10/11 01:25:45;;;;;;;5.43;3.53;;;10.20;99.90;;;;;;5051597;28;20231;-32
2022/10/11 01:28:34;;;;;;;5.53;3.57;;;10.10;99.90;;;;;;5033901;28;20211;-32
2022/10/11 01:31:26;;;;;;;5.53;3.13;;;10.10;99.90;;;;;;5050308;28;20408;-32
2022/10/11 01:34:02;;;;;;;5.37;3.50;;;10.10;99.90;;;;;;5051450;28;20196;-32
2022/10/11 01:36:41;;;;;;;5.90;3.13;;;10.00;99.90;;;;;;5051406;28;20226;-32
2022/10/11 01:39:17;;;;;;;6.03;3.53;;;10.00;99.90;;;;;;5051615;28;20214;-32
2022/10/11 01:41:51;;;;;;;3.47;3.00;;;9.90;99.90;;;;;;5050048;28;20180;-32
2022/10/11 01:44:19;;;;;;;4.67;3.03;;;9.90;99.90;;;;;;5049973;28;20222;-32
2022/10/11 01:46:46;;;;;;;4.83;2.87;;;9.90;99.90;;;;;;5050111;28;20242;-32
2022/10/11 01:49:14;;;;;;;4.90;2.87;;;9.80;99.90;;;;;;5051617;28;20214;-32
2022/10/11 01:51:44;;;;;;;7.63;3.20;;;9.80;99.90;;;;;;5051268;28;20208;-32
2022/10/11 01:54:28;;;;;;;4.13;3.30;;;9.70;99.90;;;;;;5051191;28;20196;-32
2022/10/11 01:57:34;;;;;;;7.03;3.27;;;9.70;99.90;;;;;;5051094;28;20829;-32
2022/10/11 02:00:20;;;;;;;4.40;3.13;;;9.70;99.90;;;;;;5051093;28;20206;-32
2022/10/11 02:03:11;;;;;;;4.17;3.30;;;9.60;99.90;;;;;;5051115;28;20180;-32
2022/10/11 02:05:54;;;;;;;5.20;3.00;;;9.60;99.90;;;;;;5049614;28;20686;-33
2022/10/11 02:08:31;;;;;;;6.13;3.57;;;9.60;99.90;;;;;;5051070;28;20698;-33
2022/10/11 02:11:14;;;;;;;6.40;3.37;;;9.50;99.90;;;;;;5050900;28;20259;-33
2022/10/11 02:14:09;;;;;;;4.93;3.40;;;9.50;99.90;;;;;;5050786;28;20200;-32
2022/10/11 02:16:43;;;;;;;5.07;3.50;;;9.50;99.90;;;;;;5050886;28;20224;-32
2022/10/11 02:19:13;;;;;;;4.97;3.67;;;9.40;99.90;;;;;;5050683;28;20236;-33
2022/10/11 02:21:48;;;;;;;6.47;2.83;;;9.40;99.90;;;;;;5050734;28;20220;-32
2022/10/11 02:24:20;;;;;;;4.83;3.30;;;9.40;99.90;;;;;;5050605;28;20196;-32
2022/10/11 02:26:53;;;;;;;4.97;3.50;;;9.40;99.90;;;;;;5049015;28;20283;-34
2022/10/11 02:29:26;;;;;;;4.47;3.63;;;9.40;99.90;;;;;;5049555;28;20195;-33
2022/10/11 02:31:54;;;;;;;3.97;3.33;;;9.40;99.90;;;;;;5050356;28;20192;-33
2022/10/11 02:34:25;;;;;;;4.60;3.10;;;9.30;99.90;;;;;;5050764;28;20196;-33
2022/10/11 02:36:57;;;;;;;3.80;3.40;;;9.30;99.90;;;;;;5050422;28;20652;-33
2022/10/11 02:39:34;;;;;;;6.20;3.20;;;9.30;99.90;;;;;;5050570;28;20188;-34
2022/10/11 02:42:09;;;;;;;5.43;4.23;;;9.30;99.90;;;;;;5050659;28;20200;-33
2022/10/11 02:44:45;;;;;;;4.55;3.53;;;9.30;99.90;;;;;;5049587;28;20398;-33
2022/10/11 02:47:13;;;;;;;6.77;3.73;;;9.50;99.90;;;;;;5048772;28;20214;-33
2022/10/11 02:49:41;;;;;;;6.53;3.50;;;9.40;99.90;;;;;;5050303;28;20253;-32
2022/10/11 02:52:08;;;;;;;4.77;3.33;;;9.40;99.90;;;;;;5050041;28;20691;-32
2022/10/11 02:54:36;;;;;;;4.27;2.97;;;9.30;99.90;;;;;;5050578;28;20613;-33
2022/10/11 02:57:05;;;;;;;6.50;3.73;;;9.30;99.90;;;;;;5049919;28;20286;-33
2022/10/11 02:59:35;;;;;;;4.23;3.27;;;9.20;99.90;;;;;;5050228;28;20222;-33
2022/10/11 03:02:02;;;;;;;4.80;3.30;;;9.20;99.90;;;;;;5048707;28;20200;-33
2022/10/11 03:04:29;;;;;;;5.30;3.30;;;9.10;99.90;;;;;;5050236;28;20242;-33
2022/10/11 03:06:56;;;;;;;3.73;3.27;;;9.10;99.90;;;;;;5050191;28;20205;-32
2022/10/11 03:09:24;;;;;;;4.03;3.07;;;9.10;99.90;;;;;;5049696;28;20575;-32
2022/10/11 03:11:51;;;;;;;4.70;3.00;;;9.00;99.90;;;;;;5050176;28;20204;-33
2022/10/11 03:14:18;;;;;;;4.20;3.23;;;9.00;99.90;;;;;;5049924;28;20204;-32
2022/10/11 03:16:48;;;;;;;8.47;3.00;;;9.00;99.90;;;;;;5049901;28;20255;-32
2022/10/11 03:19:17;;;;;;;4.70;3.17;;;8.90;99.90;;;;;;5048409;28;20228;-32
2022/10/11 03:21:45;;;;;;;4.53;2.90;;;8.90;99.90;;;;;;5049675;28;20662;-32
2022/10/11 03:24:13;;;;;;;6.77;3.63;;;8.90;99.90;;;;;;5049593;28;20577;-32
2022/10/11 03:26:40;;;;;;;5.27;3.50;;;8.90;99.90;;;;;;5049879;28;20816;-32
2022/10/11 03:29:07;;;;;;;5.53;3.50;;;8.90;99.90;;;;;;5049346;28;20224;-32
2022/10/11 03:31:34;;;;;;;6.17;3.67;;;8.80;99.90;;;;;;5049429;28;20204;-32
2022/10/11 03:34:04;;;;;;;5.47;3.53;;;8.80;99.90;;;;;;5049703;28;20208;-33
2022/10/11 03:36:32;;;;;;;5.90;3.53;;;8.80;99.90;;;;;;5049235;28;20220;-32
2022/10/11 03:38:59;;;;;;;5.47;3.40;;;8.80;99.90;;;;;;5048469;28;20733;-32
2022/10/11 03:41:29;;;;;;;7.57;3.60;;;8.80;99.90;;;;;;5049316;28;20227;-33
2022/10/11 03:43:57;;;;;;;5.77;3.40;;;8.80;99.90;;;;;;5049299;28;20291;-33
2022/10/11 03:46:24;;;;;;;6.37;3.57;;;8.80;99.90;;;;;;5047410;28;20532;-34
2022/10/11 03:48:51;;;;;;;7.10;3.87;;;8.80;99.90;;;;;;5049069;28;20334;-34
2022/10/11 03:51:18;;;;;;;7.43;3.43;;;8.70;99.90;;;;;;5049105;28;20203;-33
2022/10/11 03:53:45;;;;;;;8.30;3.53;;;8.70;99.90;;;;;;5064120;28;20459;-33
2022/10/11 03:56:13;;;;;;;4.93;2.93;;;8.70;99.90;;;;;;5048321;28;20256;-34
2022/10/11 03:58:42;;;;;;;5.10;3.60;;;8.70;99.90;;;;;;5047052;28;20196;-33
2022/10/11 04:01:09;;;;;;;7.67;3.40;;;8.70;99.90;;;;;;5048103;28;20212;-33
2022/10/11 04:03:36;;;;;;;8.33;3.37;;;8.70;99.90;;;;;;5048461;28;20211;-33
2022/10/11 04:06:04;;;;;;;7.83;4.00;;;8.60;99.90;;;;;;5048283;28;20263;-33
2022/10/11 04:08:31;;;;;;;6.07;3.23;;;8.60;99.90;;;;;;5046991;28;20235;-33
2022/10/11 04:11:01;;;;;;;5.90;3.73;;;8.60;99.90;;;;;;5048881;28;20703;-32
2022/10/11 04:13:28;;;;;;;5.07;3.60;;;8.60;99.90;;;;;;5048708;28;20527;-32
2022/10/11 04:15:55;;;;;;;5.33;3.80;;;8.60;99.90;;;;;;5048586;28;20210;-32
2022/10/11 04:18:22;;;;;;;6.97;3.67;;;8.50;99.90;;;;;;5048232;28;20322;-32
2022/10/11 04:20:49;;;;;;;7.87;3.83;;;8.50;99.90;;;;;;5048341;28;20212;-32
2022/10/11 04:23:19;;;;;;;7.00;4.23;;;8.50;99.90;;;;;;5046868;28;20287;-32
2022/10/11 04:25:47;;;;;;;5.83;3.90;;;8.50;99.90;;;;;;5048267;28;20291;-32
2022/10/11 04:28:14;;;;;;;6.40;4.07;;;8.50;99.90;;;;;;5048169;28;20235;-32
2022/10/11 04:30:42;;;;;;;5.47;3.60;;;8.50;99.90;;;;;;5048271;28;20239;-32
2022/10/11 04:33:14;;;;;;;8.80;4.10;;;8.50;99.90;;;;;;5048478;28;20204;-32
2022/10/11 04:35:41;;;;;;;5.30;3.70;;;8.50;99.90;;;;;;5047225;28;20196;-32
2022/10/11 04:38:08;;;;;;;6.63;4.07;;;8.50;99.90;;;;;;5048458;28;20454;-32
2022/10/11 04:40:38;;;;;;;7.70;4.00;;;8.40;99.90;;;;;;5048224;28;20192;-32
2022/10/11 04:43:05;;;;;;;7.27;3.70;;;8.40;99.90;;;;;;5048062;28;20200;-32
2022/10/11 04:45:32;;;;;;;8.30;3.77;;;8.40;99.90;;;;;;5048299;28;20219;-32
2022/10/11 04:48:02;;;;;;;6.33;3.23;;;8.40;99.90;;;;;;5047904;28;20204;-32
2022/10/11 04:50:29;;;;;;;8.30;4.00;;;8.40;99.90;;;;;;5047920;28;20295;-32
2022/10/11 04:52:56;;;;;;;6.63;3.40;;;8.40;99.90;;;;;;5047699;28;20220;-33
2022/10/11 04:55:24;;;;;;;5.83;3.63;;;8.30;99.90;;;;;;5047928;28;20219;-32
2022/10/11 04:57:51;;;;;;;6.77;3.97;;;8.30;99.90;;;;;;5048275;28;20314;-32
2022/10/11 05:00:19;;;;;;;6.40;3.90;;;8.30;99.90;;;;;;5047836;28;20667;-32
2022/10/11 05:02:46;;;;;;;6.33;3.83;;;8.30;99.90;;;;;;5047739;28;20694;-32
2022/10/11 05:05:16;;;;;;;9.47;3.73;;;8.30;99.90;;;;;;5048005;28;20196;-32
2022/10/11 05:07:46;;;;;;;6.47;3.67;;;8.30;99.90;;;;;;5046672;28;20423;-32
2022/10/11 05:10:13;;;;;;;7.93;3.93;;;8.20;99.90;;;;;;5047473;28;20214;-33
2022/10/11 05:12:40;;;;;;;7.57;4.17;;;8.20;99.90;;;;;;5047592;28;20224;-32
2022/10/11 05:15:10;;;;;;;7.97;4.20;;;8.20;99.90;;;;;;5047767;28;20204;-32
2022/10/11 05:17:38;;;;;;;6.80;4.10;;;8.20;99.90;;;;;;5047594;28;20227;-32
2022/10/11 05:20:06;;;;;;;5.47;3.70;;;8.10;99.90;;;;;;5047783;28;20255;-32
2022/10/11 05:22:33;;;;;;;7.20;3.40;;;8.10;99.90;;;;;;5047831;28;20204;-33
2022/10/11 05:25:00;;;;;;;7.27;3.80;;;8.10;99.90;;;;;;5047565;28;20208;-33
2022/10/11 05:27:27;;;;;;;8.57;4.03;;;8.10;99.90;;;;;;5047613;28;20216;-33
2022/10/11 05:29:55;;;;;;;6.63;4.00;;;8.10;99.90;;;;;;5047526;28;20250;-33
2022/10/11 05:32:26;;;;;;;7.80;3.47;;;8.10;99.90;;;;;;5047802;28;20204;-33
2022/10/11 05:34:54;;;;;;;5.50;3.90;;;8.10;99.90;;;;;;5047723;28;20192;-33
2022/10/11 05:37:21;;;;;;;8.90;4.30;;;8.10;99.90;;;;;;5047587;28;20285;-33
2022/10/11 05:39:49;;;;;;;7.60;4.03;;;8.10;99.90;;;;;;5047273;28;20203;-33
2022/10/11 05:42:16;;;;;;;9.37;4.27;;;8.00;99.90;;;;;;5046252;28;20266;-33
2022/10/11 05:44:45;;;;;;;10.47;4.60;;;8.00;99.90;;;;;;5047326;28;20262;-33
2022/10/11 05:47:13;;;;;;;10.83;4.17;;;8.00;99.90;;;;;;5046956;28;20682;-33
2022/10/11 05:49:40;;;;;;;6.83;4.27;;;8.00;99.90;;;;;;5047163;28;20241;-33
2022/10/11 05:52:09;;;;;;;10.20;4.47;;;8.00;99.90;;;;;;5047513;28;20716;-33
2022/10/11 05:54:36;;;;;;;8.77;4.17;;;8.00;99.90;;;;;;5047564;28;20303;-33
2022/10/11 05:57:03;;;;;;;10.03;4.77;;;8.00;99.90;;;;;;5047038;28;20227;-32
2022/10/11 05:59:31;;;;;;;6.80;4.37;;;8.00;99.90;;;;;;5047177;28;20200;-32
2022/10/11 06:02:00;;;;;;;7.50;3.93;;;8.00;99.90;;;;;;5047741;28;20192;-32
2022/10/11 06:04:27;;;;;;;7.20;3.90;;;8.00;99.90;;;;;;5049465;28;20220;-32
2022/10/11 06:06:55;;;;;;;9.87;4.33;;;8.00;99.90;;;;;;5050802;28;20687;-32
2022/10/11 06:09:22;;;;;;;10.20;4.07;;;8.00;99.90;;;;;;5065752;28;20243;-33
2022/10/11 06:11:49;;;;;;;10.03;5.07;;;8.00;99.90;;;;;;5051019;28;20226;-32
2022/10/11 06:14:17;;;;;;;11.83;4.63;;;8.00;99.90;;;;;;5051430;28;20214;-32
2022/10/11 06:16:44;;;;;;;11.00;4.90;;;8.00;99.90;;;;;;5050645;28;20227;-32
2022/10/11 06:19:11;;;;;;;7.37;4.23;;;8.00;99.90;;;;;;5050626;28;20240;-34
2022/10/11 06:21:38;;;;;;;10.50;4.43;;;8.00;99.90;;;;;;5050595;28;20212;-32
2022/10/11 06:24:06;;;;;;;10.83;4.53;;;8.00;99.90;;;;;;5050556;28;20198;-32
2022/10/11 06:26:36;;;;;;;11.77;4.30;;;8.00;99.90;;;;;;5050454;28;20578;-33
2022/10/11 06:29:04;;;;;;;12.13;4.90;;;8.00;99.90;;;;;;5050427;28;20204;-33
2022/10/11 06:31:34;;;;;;;8.47;3.80;;;8.00;99.90;;;;;;5050271;28;20554;-33
2022/10/11 06:34:01;;;;;;;10.53;4.70;;;8.10;99.90;;;;;;5050545;28;20211;-32
2022/10/11 06:36:31;;;;;;;7.70;4.30;;;8.10;99.90;;;;;;5050173;28;20211;-32
2022/10/11 06:39:00;;;;;;;8.43;4.10;;;8.10;99.90;;;;;;5050036;28;20192;-32
2022/10/11 06:41:31;;;;;;;7.87;3.97;;;8.10;99.90;;;;;;5050250;28;20623;-33
2022/10/11 06:43:59;;;;;;;14.13;4.70;;;8.10;99.90;;;;;;5050111;28;20636;-33
2022/10/11 06:46:32;;;;;;;12.10;4.63;;;8.10;99.90;;;;;;5050190;28;20215;-33
2022/10/11 06:48:59;;;;;;;11.60;4.47;;;8.10;99.90;;;;;;5049598;28;20204;-32
2022/10/11 06:51:28;;;;;;;11.57;5.27;;;8.10;99.90;;;;;;5050121;28;20193;-32
2022/10/11 06:54:00;;;;;;;14.40;4.83;;;8.10;99.90;;;;;;5048517;28;20196;-32
2022/10/11 06:56:30;;;;;;;9.23;3.93;;;8.20;99.90;;;;;;5049960;28;20270;-32
2022/10/11 06:58:58;;;;;;;9.07;4.70;;;8.20;99.90;;;;;;5049826;28;20270;-33
2022/10/11 07:01:26;;;;;;;11.93;4.60;;;8.20;99.90;;;;;;5049714;28;20208;-32
2022/10/11 07:03:56;;;;;;;11.17;4.60;;;8.20;99.90;;;;;;5050032;28;20200;-32
2022/10/11 07:06:26;;;;;;;12.10;4.73;;;8.20;99.90;;;;;;5065185;28;20196;-32
2022/10/11 07:08:53;;;;;;;8.33;4.23;;;8.30;99.90;;;;;;5049610;28;20265;-32
2022/10/11 07:11:23;;;;;;;8.63;4.20;;;8.30;99.90;;;;;;5049505;28;20207;-33
2022/10/11 07:13:56;;;;;;;7.53;4.30;;;8.30;99.90;;;;;;5049495;28;20200;-34
2022/10/11 07:16:23;;;;;;;8.13;4.03;;;8.30;99.90;;;;;;5050106;28;20725;-33
2022/10/11 07:18:57;;;;;;;11.27;5.03;;;8.30;99.90;;;;;;5049123;28;20612;-32
2022/10/11 07:21:28;;;;;;;9.77;4.10;;;8.40;99.90;;;;;;5049557;28;20682;-32
2022/10/11 07:23:56;;;;;;;10.73;4.47;;;8.40;99.90;;;;;;5049589;28;20558;-32
2022/10/11 07:26:23;;;;;;;13.37;4.50;;;8.40;99.90;;;;;;5049484;28;20212;-33
2022/10/11 07:28:50;;;;;;;11.57;4.73;;;8.50;99.90;;;;;;5049357;28;20453;-33
2022/10/11 07:31:21;;;;;;;9.13;4.90;;;8.50;99.90;;;;;;5047789;28;20208;-33
2022/10/11 07:33:50;;;;;;;13.20;4.63;;;8.50;99.90;;;;;;5047657;28;20708;-33
2022/10/11 07:36:18;;;;;;;9.57;4.77;;;8.60;99.90;;;;;;5047595;28;20238;-33
2022/10/11 07:38:46;;;;;;;10.37;5.10;;;8.60;99.90;;;;;;5049145;28;20227;-33
2022/10/11 07:41:13;;;;;;;8.13;4.40;;;8.70;99.90;;;;;;5048701;28;20207;-32
2022/10/11 07:43:45;;;;;;;8.53;4.90;;;8.70;99.90;;;;;;5049007;28;20215;-33
2022/10/11 07:46:13;;;;;;;8.97;4.97;;;8.70;99.90;;;;;;5064102;28;20563;-32
2022/10/11 07:48:40;;;;;;;13.63;5.43;;;8.80;99.90;;;;;;5049037;28;20200;-33
2022/10/11 07:51:14;;;;;;;12.17;6.67;;;8.80;99.90;;;;;;5049258;28;20208;-32
2022/10/11 07:53:46;;;;;;;14.73;7.10;;;8.90;99.90;;;;;;5048729;28;20204;-33
2022/10/11 07:56:20;;;;;;;13.87;8.33;;;8.90;99.90;;;;;;5048495;28;20188;-32
2022/10/11 07:58:56;;;;;;;14.97;9.17;;;9.00;99.90;;;;;;5048721;28;20314;-32
2022/10/11 08:01:26;;;;;;;13.63;9.20;;;9.10;99.90;;;;;;5047900;28;20722;-32
2022/10/11 08:03:58;;;;;;;12.60;9.00;;;9.10;99.90;;;;;;5047262;28;20270;-33
2022/10/11 08:06:30;;;;;;;18.33;8.87;;;9.20;99.90;;;;;;5047338;28;20192;-32
2022/10/11 08:08:59;;;;;;;13.73;7.97;;;9.20;99.90;;;;;;5048559;28;20219;-32
2022/10/11 08:11:32;;;;;;;12.70;6.40;;;9.30;99.90;;;;;;5048738;28;20204;-32
2022/10/11 08:14:00;;;;;;;11.03;6.67;;;9.40;99.90;;;;;;5048565;28;20228;-32
2022/10/11 08:16:27;;;;;;;13.00;5.63;;;9.40;99.90;;;;;;5048444;28;20212;-33
2022/10/11 08:18:55;;;;;;;17.03;10.20;;;9.50;99.90;;;;;;5047980;28;20240;-33
2022/10/11 08:21:26;;;;;;;13.90;7.10;;;9.60;99.90;;;;;;5046847;28;20220;-33
2022/10/11 08:23:54;;;;;;;12.43;6.60;;;9.60;99.90;;;;;;5048155;28;20207;-32
2022/10/11 08:26:21;;;;;;;11.07;5.77;;;9.70;99.90;;;;;;5046214;28;20200;-33
2022/10/11 08:28:49;;;;;;;12.90;5.20;;;9.80;99.90;;;;;;5048469;28;20255;-33
2022/10/11 08:31:21;;;;;;;10.00;5.27;;;9.80;99.90;;;;;;5046919;28;20663;-33
2022/10/11 08:33:48;;;;;;;10.63;5.10;;;9.90;99.90;;;;;;5048136;28;20277;-32
2022/10/11 08:36:18;;;;;;;11.63;5.33;;;9.90;99.90;;;;;;5048133;28;20223;-32
2022/10/11 08:38:45;;;;;;;13.00;5.40;;;10.00;99.90;;;;;;5046390;28;20254;-32
2022/10/11 08:41:50;;;;;;;10.27;5.40;;;10.10;99.90;;;;;;5046461;28;20196;-32
2022/10/11 08:44:30;;;;;;;9.87;5.17;;;10.20;99.90;;;;;;5046214;28;20307;-33
2022/10/11 08:47:36;;;;;;;12.80;4.77;;;10.20;99.90;;;;;;5047900;28;20635;-32
2022/10/11 08:50:06;;;;;;;13.47;5.40;;;10.30;99.90;;;;;;5047794;28;20254;-33
2022/10/11 08:52:43;;;;;;;14.00;5.27;;;10.30;99.90;;;;;;5047673;28;20197;-33
2022/10/11 08:55:24;;;;;;;9.80;4.93;;;10.40;99.90;;;;;;5048078;28;20195;-32
2022/10/11 08:57:54;;;;;;;11.63;5.03;;;10.50;99.90;;;;;;5047945;28;20211;-32
2022/10/11 09:00:23;;;;;;;11.33;5.83;;;10.50;99.90;;;;;;5047812;28;20386;-32
2022/10/11 09:03:04;;;;;;;12.50;6.27;;;10.60;99.90;;;;;;5047529;28;20215;-33
2022/10/11 09:06:00;;;;;;;9.23;5.13;;;10.70;99.90;;;;;;5047401;28;20717;-33
2022/10/11 09:08:34;;;;;;;12.33;6.33;;;10.80;99.90;;;;;;5047620;28;20185;-33
2022/10/11 09:11:20;;;;;;;14.60;6.10;;;10.80;99.90;;;;;;5047342;28;20553;-32
2022/10/11 09:13:48;;;;;;;14.33;5.73;;;10.90;99.90;;;;;;5047334;28;20283;-32
2022/10/11 09:16:42;;;;;;;11.53;6.27;;;11.00;99.90;;;;;;5047377;28;20200;-32
2022/10/11 09:19:18;;;;;;;10.77;5.07;;;11.00;99.90;;;;;;5047424;28;20594;-33
2022/10/11 09:21:51;;;;;;;12.10;5.17;;;11.10;99.90;;;;;;5047292;28;20196;-32
2022/10/11 09:24:33;;;;;;;10.13;5.07;;;11.20;99.90;;;;;;5047244;28;20228;-32
2022/10/11 09:27:06;;;;;;;12.00;5.13;;;11.20;99.90;;;;;;5047436;28;20224;-33
2022/10/11 09:29:42;;;;;;;13.70;5.57;;;11.30;99.90;;;;;;5047524;28;20204;-32
2022/10/11 09:32:20;;;;;;;15.93;6.70;;;11.40;99.90;;;;;;5047284;28;20207;-32
2022/10/11 09:35:17;;;;;;;13.60;5.93;;;11.40;99.90;;;;;;5047173;28;20196;-33
2022/10/11 09:37:54;;;;;;;11.50;5.53;;;11.60;99.90;;;;;;5049211;28;20224;-32
2022/10/11 09:40:50;;;;;;;11.27;5.67;;;11.60;99.90;;;;;;5051439;28;20640;-32
2022/10/11 09:43:17;;;;;;;11.17;5.27;;;11.70;99.90;;;;;;5051121;28;20295;-33
2022/10/11 09:45:46;;;;;;;13.57;5.87;;;11.80;99.90;;;;;;5050893;28;20216;-32
2022/10/11 09:48:40;;;;;;;15.33;5.33;;;11.80;99.90;;;;;;5051019;28;20277;-32
2022/10/11 09:51:17;;;;;;;13.37;5.23;;;11.90;99.90;;;;;;5050698;28;20550;-32
2022/10/11 09:54:03;;;;;;;13.67;4.80;;;12.00;99.90;;;;;;5050950;28;20222;-33
2022/10/11 09:56:34;;;;;;;9.90;4.60;;;12.00;99.90;;;;;;5066229;28;20196;-32
2022/10/11 09:59:24;;;;;;;12.47;4.97;;;12.10;99.90;;;;;;5049470;28;20624;-34
2022/10/11 10:02:25;;;;;;;13.90;5.07;;;12.10;99.90;;;;;;5050802;28;20192;-31
2022/10/11 10:05:17;;;;;;;11.57;4.43;;;12.20;99.90;;;;;;5049753;28;20240;-32
2022/10/11 10:08:00;;;;;;;8.30;3.90;;;12.30;99.90;;;;;;5050891;28;20582;-32
2022/10/11 10:10:37;;;;;;;10.40;3.70;;;12.40;99.90;;;;;;5050583;28;20811;-32
2022/10/11 10:13:21;;;;;;;9.20;3.60;;;12.50;99.90;;;;;;5050523;28;20455;-32
2022/10/11 10:15:52;;;;;;;11.97;3.00;;;12.50;99.90;;;;;;5050330;28;20208;-32
2022/10/11 10:18:24;;;;;;;9.43;2.50;;;12.60;99.90;;;;;;5050303;28;20301;-32
2022/10/11 10:20:58;;;;;;;12.60;2.70;;;12.70;99.90;;;;;;5050462;28;20622;-32
2022/10/11 10:23:36;;;;;;;5.93;2.50;;;12.80;99.90;;;;;;5049874;28;20653;-33
2022/10/11 10:26:21;;;;;;;11.20;3.90;;;12.80;99.90;;;;;;5064897;28;20203;-33
2022/10/11 10:29:06;;;;;;;9.73;3.30;;;12.90;99.90;;;;;;5049698;28;20674;-33
2022/10/11 10:31:46;;;;;;;12.07;2.87;;;13.00;99.90;;;;;;5049475;28;20307;-32
2022/10/11 10:34:39;;;;;;;8.63;2.20;;;13.00;99.90;;;;;;5048737;28;20218;-32
2022/10/11 10:37:34;;;;;;;7.80;1.97;;;13.10;99.90;;;;;;5049623;28;20697;-32
2022/10/11 10:40:14;;;;;;;8.00;2.23;;;13.20;99.90;;;;;;5048113;28;20623;-32
2022/10/11 10:42:44;;;;;;;10.87;2.27;;;13.30;99.90;;;;;;5064555;28;20207;-32
2022/10/11 10:45:16;;;;;;;9.30;2.40;;;13.30;99.90;;;;;;5049621;28;20271;-32
2022/10/11 10:48:21;;;;;;;8.13;2.23;;;13.50;99.90;;;;;;5049540;28;20592;-32
2022/10/11 10:50:53;;;;;;;10.10;2.70;;;13.50;99.90;;;;;;5049378;28;20220;-32
2022/10/11 10:53:40;;;;;;;13.33;2.70;;;13.60;99.90;;;;;;5049429;28;20189;-33
2022/10/11 10:56:32;;;;;;;8.20;2.17;;;13.70;99.90;;;;;;5049362;28;20192;-33
2022/10/11 10:59:16;;;;;;;5.77;1.90;;;13.70;99.90;;;;;;5049255;28;20213;-33
2022/10/11 11:02:01;;;;;;;6.80;2.17;;;13.80;99.90;;;;;;5049745;28;20204;-33
2022/10/11 11:05:21;;;;;;;7.23;2.07;;;13.90;99.90;;;;;;5049791;28;20192;-32
2022/10/11 11:08:14;;;;;;;7.50;2.00;;;14.00;99.90;;;;;;5049277;28;20224;-32
2022/10/11 11:10:53;;;;;;;11.03;2.70;;;14.10;99.90;;;;;;5054434;28;20204;-32
2022/10/11 11:13:43;;;;;;;7.40;2.27;;;14.20;99.90;;;;;;5049371;28;20200;-33
2022/10/11 11:16:30;;;;;;;10.70;2.00;;;14.20;99.90;;;;;;5049211;28;20197;-33
2022/10/11 11:19:02;;;;;;;8.20;1.90;;;14.30;99.90;;;;;;5049068;28;20664;-33
2022/10/11 11:21:44;;;;;;;9.83;1.97;;;14.30;99.90;;;;;;5049487;28;20679;-32
2022/10/11 11:24:20;;;;;;;11.57;1.90;;;14.40;99.90;;;;;;5049118;28;20224;-32
2022/10/11 11:26:56;;;;;;;7.83;1.80;;;14.40;99.90;;;;;;5049272;28;20202;-33
2022/10/11 11:30:00;;;;;;;8.20;2.13;;;14.50;99.90;;;;;;5049022;28;20343;-32
2022/10/11 11:33:05;;;;;;;9.23;2.13;;;14.50;99.90;;;;;;5049077;28;20184;-32
2022/10/11 11:35:41;;;;;;;6.77;1.83;;;14.50;99.90;;;;;;5048964;28;20652;-33
2022/10/11 11:38:44;;;;;;;10.53;1.67;;;14.50;99.90;;;;;;5048705;28;20208;-33
2022/10/11 11:41:27;;;;;;;5.23;1.40;;;14.60;99.90;;;;;;5048739;28;20216;-32
2022/10/11 11:44:20;;;;;;;14.37;2.03;;;14.60;99.90;;;;;;5048461;28;20193;-32
2022/10/11 11:46:56;;;;;;;8.20;1.60;;;14.60;99.90;;;;;;5048607;28;20197;-32
2022/10/11 11:49:30;;;;;;;7.20;2.00;;;14.70;99.90;;;;;;5048704;28;20205;-32
2022/10/11 11:51:58;;;;;;;5.17;1.63;;;14.70;99.90;;;;;;5048524;28;20284;-33
2022/10/11 11:54:50;;;;;;;6.27;1.80;;;14.80;99.90;;;;;;5048315;28;20200;-33
2022/10/11 11:57:31;;;;;;;7.73;1.83;;;14.80;99.90;;;;;;5048501;28;20552;-32
2022/10/11 12:00:11;;;;;;;6.97;1.73;;;14.90;99.90;;;;;;5047433;28;20257;-32
2022/10/11 12:02:47;;;;;;;7.10;1.87;;;14.90;99.90;;;;;;5063305;28;20184;-32
2022/10/11 12:05:18;;;;;;;11.37;1.97;;;15.00;99.90;;;;;;5048166;28;20188;-33
2022/10/11 12:08:04;;;;;;;6.53;1.63;;;15.00;99.90;;;;;;5047871;28;20212;-32
2022/10/11 12:10:52;;;;;;;7.53;1.50;;;15.10;99.90;;;;;;5047258;28;20219;-32
2022/10/11 12:13:25;;;;;;;9.37;1.90;;;15.20;99.90;;;;;;5047900;28;20203;-32
2022/10/11 12:16:19;;;;;;;13.93;2.07;;;15.20;99.90;;;;;;5047098;28;20200;-33
2022/10/11 12:18:55;;;;;;;10.07;2.13;;;15.30;99.90;;;;;;5047858;28;20343;-32
2022/10/11 12:21:38;;;;;;;6.40;1.93;;;15.40;99.90;;;;;;5046471;28;20267;-32
2022/10/11 12:24:05;;;;;;;9.73;2.03;;;15.50;99.90;;;;;;5047961;28;20204;-33
2022/10/11 12:26:36;;;;;;;9.60;2.30;;;15.50;99.90;;;;;;5047967;28;20804;-33
2022/10/11 12:29:17;;;;;;;8.30;1.57;;;15.60;99.90;;;;;;5048010;28;20196;-33
2022/10/11 12:31:57;;;;;;;8.27;2.03;;;15.60;99.90;;;;;;5047865;28;20230;-33
2022/10/11 12:34:39;;;;;;;3.90;1.10;;;15.60;99.90;;;;;;5047682;28;20602;-33
2022/10/11 12:37:21;;;;;;;5.47;1.53;;;15.70;99.90;;;;;;5047720;28;20525;-32
2022/10/11 12:39:52;;;;;;;6.50;1.57;;;15.80;99.90;;;;;;5046207;28;20570;-32
2022/10/11 12:42:24;;;;;;;7.87;2.00;;;15.80;99.90;;;;;;5062833;28;20325;-32
2022/10/11 12:45:12;;;;;;;6.90;1.87;;;15.80;99.90;;;;;;5047674;28;20300;-33
2022/10/11 12:47:47;;;;;;;3.37;1.37;;;15.80;99.90;;;;;;5047699;28;20694;-33
2022/10/11 12:50:14;;;;;;;6.83;1.50;;;15.90;99.90;;;;;;5047796;28;20293;-32
2022/10/11 12:53:08;;;;;;;12.13;1.93;;;15.90;99.90;;;;;;5047799;28;20203;-32
2022/10/11 12:56:05;;;;;;;10.23;2.37;;;15.90;99.90;;;;;;5047547;28;20227;-33
2022/10/11 12:58:40;;;;;;;7.30;1.60;;;15.80;99.90;;;;;;5047215;28;20304;-33
2022/10/11 13:01:17;;;;;;;7.00;1.40;;;15.80;99.90;;;;;;5046147;28;20204;-34
2022/10/11 13:04:05;;;;;;;5.83;1.43;;;15.80;99.90;;;;;;5047444;28;20181;-32
2022/10/11 13:06:44;;;;;;;5.63;1.40;;;15.80;99.90;;;;;;5047197;28;20695;-32
2022/10/11 13:09:31;;;;;;;4.97;1.40;;;15.90;99.90;;;;;;5047699;28;20203;-33
2022/10/11 13:12:20;;;;;;;5.43;1.77;;;15.90;99.90;;;;;;5047366;28;20243;-32
2022/10/11 13:15:12;;;;;;;9.83;1.57;;;15.90;99.90;;;;;;5047366;28;20220;-34
2022/10/11 13:17:40;;;;;;;9.57;1.97;;;15.80;99.90;;;;;;5047126;28;20216;-32
2022/10/11 13:20:23;;;;;;;8.47;1.90;;;15.70;99.90;;;;;;5047411;28;20212;-32
2022/10/11 13:22:53;;;;;;;5.93;1.60;;;15.70;99.90;;;;;;5047313;28;20199;-32
2022/10/11 13:25:24;;;;;;;5.10;1.60;;;15.70;99.90;;;;;;5047199;28;20232;-33